Time;durP1;ratioP1;P1;durP2;ratioP2;P2;SDS_P1;SDS_P2;PMS_P1;PMS_P2;Temp;Humidity;BMP_temperature;BMP_pressure;BME280_temperature;BME280_humidity;BME280_pressure;Samples;Min_cycle;Max_cycle;Signal;HPM_P1;HPM_P2
2021/10/22 00:00:16;;;;;;;4.38;1.33;;;24.30;40.50;;;;;;6150032;28;80830;-67
2021/10/22 00:03:16;;;;;;;7.97;1.90;;;24.30;40.50;;;;;;6151971;28;82845;-67
2021/10/22 00:06:17;;;;;;;1.73;1.13;;;24.30;40.50;;;;;;6160585;28;80606;-68
2021/10/22 00:09:18;;;;;;;9.27;1.70;;;24.30;40.50;;;;;;6160002;28;80620;-67
2021/10/22 00:12:18;;;;;;;3.25;1.67;;;24.30;40.30;;;;;;6157875;28;83173;-67
2021/10/22 00:15:19;;;;;;;2.72;1.40;;;24.30;40.30;;;;;;6157941;28;81742;-68
2021/10/22 00:18:20;;;;;;;2.92;1.73;;;24.30;40.20;;;;;;6157376;28;80815;-68
2021/10/22 00:21:21;;;;;;;2.28;1.50;;;24.30;40.30;;;;;;6159238;28;81709;-68
2021/10/22 00:24:21;;;;;;;2.58;1.27;;;24.30;40.30;;;;;;6140985;28;80303;-67
2021/10/22 00:27:23;;;;;;;2.20;1.35;;;24.30;40.40;;;;;;6161555;28;81602;-67
2021/10/22 00:30:23;;;;;;;1.67;1.25;;;24.30;40.20;;;;;;6161039;28;80336;-67
2021/10/22 00:33:24;;;;;;;1.85;1.38;;;24.30;40.20;;;;;;6160404;28;80376;-66
2021/10/22 00:36:24;;;;;;;1.52;1.20;;;24.30;40.10;;;;;;6152023;28;82176;-67
2021/10/22 00:39:26;;;;;;;4.53;1.80;;;24.30;40.20;;;;;;6161254;28;80241;-67
2021/10/22 00:42:26;;;;;;;3.75;1.42;;;24.30;40.30;;;;;;6162051;28;81692;-67
2021/10/22 00:45:27;;;;;;;3.80;1.52;;;24.30;40.30;;;;;;6150594;28;80343;-67
2021/10/22 00:48:27;;;;;;;7.93;1.73;;;24.30;40.90;;;;;;6163803;28;80355;-67
2021/10/22 00:51:28;;;;;;;5.20;1.50;;;24.30;40.70;;;;;;6160927;28;81473;-67
2021/10/22 00:54:28;;;;;;;3.20;1.30;;;24.30;40.90;;;;;;6161173;28;81093;-67
2021/10/22 00:57:29;;;;;;;2.75;1.33;;;24.30;40.90;;;;;;6161558;28;80916;-67
2021/10/22 01:00:31;;;;;;;3.92;1.48;;;24.30;40.80;;;;;;6160413;28;80722;-67
2021/10/22 01:03:32;;;;;;;6.13;1.83;;;24.30;40.60;;;;;;6159187;28;81659;-67
2021/10/22 01:06:32;;;;;;;5.28;1.30;;;24.30;40.70;;;;;;6161605;28;80452;-68
2021/10/22 01:09:34;;;;;;;3.20;1.70;;;24.30;40.80;;;;;;6162151;28;80700;-67
2021/10/22 01:12:35;;;;;;;2.13;1.40;;;24.30;40.70;;;;;;6161862;28;80900;-67
2021/10/22 01:15:36;;;;;;;3.30;1.80;;;24.30;40.70;;;;;;6154215;28;81130;-66
2021/10/22 01:18:36;;;;;;;5.18;1.50;;;24.30;40.80;;;;;;6160939;28;80660;-66
2021/10/22 01:21:37;;;;;;;5.63;1.60;;;24.30;41.10;;;;;;6160106;28;82009;-66
2021/10/22 01:24:38;;;;;;;1.75;1.30;;;24.30;41.10;;;;;;6160326;28;81708;-66
2021/10/22 01:27:38;;;;;;;7.07;1.40;;;24.30;40.70;;;;;;6168216;28;82968;-66
2021/10/22 01:30:40;;;;;;;5.20;1.40;;;24.30;40.80;;;;;;6159793;28;80527;-66
2021/10/22 01:33:41;;;;;;;6.15;1.85;;;24.30;40.70;;;;;;6158723;28;81589;-67
2021/10/22 01:36:42;;;;;;;7.05;1.75;;;24.30;40.80;;;;;;6160704;28;80673;-66
2021/10/22 01:39:42;;;;;;;3.15;1.33;;;24.30;40.80;;;;;;6160163;28;81476;-66
2021/10/22 01:42:43;;;;;;;2.72;1.40;;;24.30;40.60;;;;;;6160493;28;81470;-66
2021/10/22 01:45:43;;;;;;;5.35;1.52;;;24.30;40.70;;;;;;6160510;28;80432;-67
2021/10/22 01:48:45;;;;;;;5.60;1.60;;;24.30;40.50;;;;;;6143997;28;80339;-66
2021/10/22 01:51:45;;;;;;;3.25;1.50;;;24.30;40.50;;;;;;6158801;28;80394;-67
2021/10/22 01:54:46;;;;;;;2.53;1.60;;;24.30;40.50;;;;;;6160726;28;80260;-67
2021/10/22 01:57:48;;;;;;;1.67;1.30;;;24.30;40.50;;;;;;6159898;28;80718;-66
2021/10/22 02:00:48;;;;;;;2.97;1.67;;;24.30;40.50;;;;;;6146076;28;83419;-67
2021/10/22 02:03:49;;;;;;;2.85;1.33;;;24.30;40.50;;;;;;6157127;28;81764;-66
2021/10/22 02:06:50;;;;;;;4.95;1.65;;;24.30;40.50;;;;;;6149327;28;81736;-67
2021/10/22 02:09:50;;;;;;;3.90;1.35;;;24.30;40.50;;;;;;6158503;28;80333;-66
2021/10/22 02:12:51;;;;;;;2.72;1.40;;;24.30;40.50;;;;;;6158989;28;83242;-66
2021/10/22 02:15:51;;;;;;;3.25;1.80;;;24.30;40.50;;;;;;6159769;28;80770;-65
2021/10/22 02:18:52;;;;;;;4.22;1.50;;;24.30;40.60;;;;;;6159634;28;80610;-65
2021/10/22 02:21:52;;;;;;;5.20;1.52;;;24.30;40.50;;;;;;6159307;28;80305;-66
2021/10/22 02:24:53;;;;;;;2.13;1.42;;;24.30;40.50;;;;;;6157249;28;81358;-65
2021/10/22 02:27:55;;;;;;;3.50;1.75;;;24.20;40.80;;;;;;6158999;28;80641;-65
2021/10/22 02:30:55;;;;;;;3.50;1.30;;;24.20;41.20;;;;;;6158533;28;80708;-68
2021/10/22 02:33:56;;;;;;;2.40;1.40;;;24.30;41.20;;;;;;6155658;28;80978;-66
2021/10/22 02:36:57;;;;;;;4.68;1.60;;;24.20;41.10;;;;;;6158996;28;80090;-66
2021/10/22 02:39:57;;;;;;;1.45;1.30;;;24.20;40.70;;;;;;6159550;28;80461;-65
2021/10/22 02:42:58;;;;;;;1.80;1.30;;;24.20;40.60;;;;;;6158985;28;80861;-66
2021/10/22 02:45:58;;;;;;;2.63;1.40;;;24.20;40.20;;;;;;6159074;28;80925;-66
2021/10/22 02:48:59;;;;;;;5.78;2.13;;;24.20;40.10;;;;;;6158545;28;81473;-66
2021/10/22 02:51:59;;;;;;;2.60;1.42;;;24.20;40.10;;;;;;6141210;28;80705;-66
2021/10/22 02:55:00;;;;;;;2.58;1.40;;;24.30;40.10;;;;;;6159405;28;80582;-66
2021/10/22 02:58:00;;;;;;;3.67;1.83;;;24.30;40.10;;;;;;6159487;28;81800;-66
2021/10/22 03:01:01;;;;;;;3.08;1.33;;;24.30;40.00;;;;;;6158164;28;80432;-66
2021/10/22 03:04:02;;;;;;;2.47;1.23;;;24.30;39.80;;;;;;6158503;28;80326;-66
2021/10/22 03:07:02;;;;;;;2.28;1.45;;;24.30;39.70;;;;;;6149863;28;81958;-67
2021/10/22 03:10:03;;;;;;;3.20;1.50;;;24.30;39.80;;;;;;6158819;28;80446;-66
2021/10/22 03:13:03;;;;;;;2.58;1.40;;;24.30;39.80;;;;;;6139936;28;80602;-65
2021/10/22 03:16:04;;;;;;;4.85;1.33;;;24.30;39.70;;;;;;6159536;28;80557;-65
2021/10/22 03:19:04;;;;;;;3.55;1.58;;;24.30;39.60;;;;;;6158751;28;80272;-65
2021/10/22 03:22:05;;;;;;;3.33;1.60;;;24.30;39.60;;;;;;6157736;28;80018;-65
2021/10/22 03:25:05;;;;;;;3.03;1.30;;;24.40;39.70;;;;;;6158366;28;80434;-66
2021/10/22 03:28:06;;;;;;;4.43;1.48;;;24.40;39.60;;;;;;6157501;28;80448;-66
2021/10/22 03:31:06;;;;;;;2.42;1.58;;;24.40;39.60;;;;;;6157830;28;80940;-66
2021/10/22 03:34:07;;;;;;;1.38;1.27;;;24.40;39.70;;;;;;6156359;28;80739;-65
2021/10/22 03:37:07;;;;;;;2.20;1.55;;;24.40;39.80;;;;;;6158568;28;80666;-66
2021/10/22 03:40:08;;;;;;;2.15;1.45;;;24.40;39.80;;;;;;6165023;28;81494;-65
2021/10/22 03:43:08;;;;;;;2.90;1.48;;;24.40;39.80;;;;;;6157263;28;80760;-65
2021/10/22 03:46:09;;;;;;;3.92;1.65;;;24.40;39.80;;;;;;6148945;28;81673;-66
2021/10/22 03:49:09;;;;;;;3.17;1.75;;;24.40;39.90;;;;;;6157672;28;80419;-65
2021/10/22 03:52:10;;;;;;;2.75;1.60;;;24.40;39.90;;;;;;6156735;28;80735;-66
2021/10/22 03:55:10;;;;;;;2.40;1.30;;;24.40;40.00;;;;;;6157090;28;80898;-68
2021/10/22 03:58:11;;;;;;;2.10;1.58;;;24.50;39.90;;;;;;6158908;28;80431;-64
2021/10/22 04:01:11;;;;;;;2.67;1.70;;;24.50;40.00;;;;;;6159788;28;81321;-62
2021/10/22 04:04:12;;;;;;;2.35;1.52;;;24.50;39.80;;;;;;6164007;28;81138;-63
2021/10/22 04:07:12;;;;;;;4.20;1.58;;;24.50;39.80;;;;;;6158735;28;80675;-64
2021/10/22 04:10:13;;;;;;;1.75;1.52;;;24.50;39.70;;;;;;6143953;28;82024;-67
2021/10/22 04:13:14;;;;;;;2.90;1.45;;;24.50;39.70;;;;;;6161346;28;81758;-63
2021/10/22 04:16:14;;;;;;;3.75;1.88;;;24.50;39.60;;;;;;6153891;28;81887;-67
2021/10/22 04:19:15;;;;;;;3.92;1.90;;;24.50;40.00;;;;;;6143629;28;81696;-65
2021/10/22 04:22:15;;;;;;;5.13;1.80;;;24.50;40.20;;;;;;6161904;28;81903;-66
2021/10/22 04:25:16;;;;;;;4.40;2.00;;;24.50;40.10;;;;;;6155068;28;81802;-66
2021/10/22 04:28:16;;;;;;;4.63;2.10;;;24.50;41.30;;;;;;6161721;28;80825;-65
2021/10/22 04:31:17;;;;;;;4.38;1.95;;;24.60;42.20;;;;;;6158832;28;81427;-66
2021/10/22 04:34:18;;;;;;;6.82;2.30;;;24.60;42.00;;;;;;6161452;28;80518;-68
2021/10/22 04:40:29;;;;;;;3.30;2.20;;;24.60;43.10;;;;;;6160969;28;80492;-67
2021/10/22 04:40:42;;;;;;;9.35;2.13;;;24.60;43.80;;;;;;6145884;28;85487;-68
2021/10/22 04:43:42;;;;;;;5.05;2.58;;;24.60;42.70;;;;;;6162570;28;80338;-69
2021/10/22 04:46:43;;;;;;;4.75;2.00;;;24.50;43.10;;;;;;6161224;28;80783;-69
2021/10/22 04:49:44;;;;;;;7.65;2.08;;;24.60;43.30;;;;;;6160727;28;81733;-68
2021/10/22 04:52:44;;;;;;;4.78;2.00;;;24.60;43.50;;;;;;6161107;28;81752;-69
2021/10/22 04:55:45;;;;;;;7.07;1.80;;;24.60;43.70;;;;;;6159887;28;80544;-67
2021/10/22 04:58:47;;;;;;;8.25;1.98;;;24.70;43.80;;;;;;6161101;28;80627;-66
2021/10/22 05:01:48;;;;;;;7.45;2.45;;;24.70;43.80;;;;;;6155823;28;80260;-66
2021/10/22 05:04:48;;;;;;;3.83;2.10;;;24.70;43.60;;;;;;6159294;28;80353;-65
2021/10/22 05:07:49;;;;;;;3.33;1.98;;;24.70;43.70;;;;;;6171881;28;80567;-69
2021/10/22 05:10:49;;;;;;;4.35;1.90;;;24.70;43.40;;;;;;6163004;28;80714;-68
2021/10/22 05:13:50;;;;;;;8.70;1.73;;;24.70;43.40;;;;;;6158261;28;80781;-68
2021/10/22 05:16:50;;;;;;;4.78;1.80;;;24.70;43.30;;;;;;6160664;28;80527;-67
2021/10/22 05:19:51;;;;;;;8.77;2.22;;;24.70;42.80;;;;;;6160513;28;82079;-70
2021/10/22 05:22:52;;;;;;;9.52;2.38;;;24.70;43.10;;;;;;6160809;28;80907;-67
2021/10/22 05:25:52;;;;;;;3.60;2.17;;;24.70;43.40;;;;;;6144140;28;81729;-69
2021/10/22 05:28:53;;;;;;;5.53;2.05;;;24.70;43.00;;;;;;6161857;28;80518;-67
2021/10/22 05:31:53;;;;;;;14.40;2.30;;;24.70;43.30;;;;;;6158880;28;80469;-68
2021/10/22 05:34:54;;;;;;;5.00;1.98;;;24.60;43.30;;;;;;6161561;28;80407;-67
2021/10/22 05:37:54;;;;;;;3.72;2.10;;;24.60;43.80;;;;;;6142568;28;81723;-67
2021/10/22 05:40:55;;;;;;;9.68;2.80;;;24.60;43.90;;;;;;6160056;28;80904;-66
2021/10/22 05:43:56;;;;;;;4.10;2.13;;;24.60;44.10;;;;;;6158939;28;81892;-67
2021/10/22 05:46:57;;;;;;;6.55;2.35;;;24.60;44.10;;;;;;6160851;28;80980;-66
2021/10/22 05:49:58;;;;;;;4.03;1.70;;;24.60;44.10;;;;;;6162025;28;81506;-65
2021/10/22 05:52:58;;;;;;;6.38;1.92;;;24.60;43.90;;;;;;6160130;28;80492;-66
2021/10/22 05:55:59;;;;;;;4.78;1.90;;;24.70;43.90;;;;;;6159679;28;81532;-65
2021/10/22 05:58:59;;;;;;;5.78;2.15;;;24.70;43.60;;;;;;6164524;28;80737;-65
2021/10/22 06:02:00;;;;;;;8.90;2.65;;;24.70;43.40;;;;;;6160057;28;81446;-66
2021/10/22 06:05:00;;;;;;;5.43;2.50;;;24.70;43.00;;;;;;6160565;28;80619;-66
2021/10/22 06:08:01;;;;;;;2.40;1.88;;;24.70;42.80;;;;;;6146600;28;81537;-66
2021/10/22 06:11:04;;;;;;;2.92;1.75;;;24.70;43.00;;;;;;6159096;28;81015;-66
2021/10/22 06:14:05;;;;;;;3.85;2.00;;;24.70;42.60;;;;;;6159112;28;81653;-66
2021/10/22 06:17:06;;;;;;;4.32;2.05;;;24.70;42.40;;;;;;6157886;28;81183;-62
2021/10/22 06:20:13;;;;;;;5.20;1.73;;;24.70;42.50;;;;;;6158430;28;80550;-62
2021/10/22 06:26:33;;;;;;;5.03;2.20;;;24.70;41.30;;;;;;6156190;28;80554;-64
2021/10/22 06:29:34;;;;;;;3.72;2.17;;;24.70;41.00;;;;;;6158199;28;81053;-64
2021/10/22 06:32:34;;;;;;;6.45;2.47;;;24.70;40.40;;;;;;6158110;28;80420;-65
2021/10/22 06:35:36;;;;;;;4.75;2.22;;;24.70;40.70;;;;;;6156618;28;80514;-65
2021/10/22 06:38:37;;;;;;;3.28;2.28;;;24.60;39.60;;;;;;6159366;28;81085;-66
2021/10/22 06:41:38;;;;;;;4.75;2.65;;;24.60;38.70;;;;;;6158970;28;82414;-65
2021/10/22 06:44:38;;;;;;;5.47;2.30;;;24.60;38.20;;;;;;6159706;28;81617;-68
2021/10/22 06:47:39;;;;;;;5.35;2.22;;;24.60;37.40;;;;;;6158352;28;80113;-67
2021/10/22 06:50:40;;;;;;;4.13;2.10;;;24.60;37.70;;;;;;6157291;28;80266;-66
2021/10/22 06:53:40;;;;;;;3.95;2.50;;;24.60;37.60;;;;;;6157890;28;81466;-67
2021/10/22 06:56:41;;;;;;;6.68;2.90;;;24.40;35.50;;;;;;6164042;28;80588;-67
2021/10/22 06:59:41;;;;;;;6.30;2.75;;;24.10;36.00;;;;;;6157816;28;81581;-66
2021/10/22 07:02:43;;;;;;;10.80;3.08;;;24.10;35.80;;;;;;6159867;28;80524;-66
2021/10/22 07:08:56;;;;;;;3.95;2.38;;;24.00;36.30;;;;;;6150080;28;84770;-67
2021/10/22 07:11:57;;;;;;;5.07;2.63;;;23.80;35.50;;;;;;6126422;28;82263;-67
2021/10/22 07:14:59;;;;;;;7.40;3.10;;;23.80;35.40;;;;;;6157552;28;81518;-68
2021/10/22 07:18:00;;;;;;;6.35;2.58;;;23.60;35.10;;;;;;6158570;28;81139;-67
2021/10/22 07:21:00;;;;;;;5.65;2.05;;;23.50;35.50;;;;;;6157547;28;80431;-68
2021/10/22 07:24:06;;;;;;;5.55;2.25;;;23.20;35.30;;;;;;6160748;28;80401;-67
2021/10/22 07:27:06;;;;;;;3.15;1.73;;;23.30;35.00;;;;;;6155185;28;80939;-67
2021/10/22 07:30:07;;;;;;;3.75;2.00;;;23.20;35.20;;;;;;6157699;28;81057;-67
2021/10/22 07:33:07;;;;;;;4.00;1.98;;;23.20;35.20;;;;;;6158021;28;81391;-67
2021/10/22 07:36:08;;;;;;;6.10;2.00;;;23.30;34.60;;;;;;6157635;28;80424;-67
2021/10/22 07:39:09;;;;;;;2.97;1.70;;;23.20;34.30;;;;;;6157319;28;80484;-67
2021/10/22 07:42:09;;;;;;;4.13;2.10;;;22.90;34.30;;;;;;6158806;28;81846;-68
2021/10/22 07:45:10;;;;;;;4.28;2.00;;;23.10;34.90;;;;;;6156825;28;81615;-68
2021/10/22 07:48:10;;;;;;;5.13;1.77;;;23.10;34.70;;;;;;6156844;28;80410;-68
2021/10/22 07:51:11;;;;;;;9.60;3.00;;;23.10;34.50;;;;;;6157066;28;81331;-67
2021/10/22 07:54:12;;;;;;;3.50;1.83;;;23.20;34.10;;;;;;6139884;28;83185;-67
2021/10/22 07:57:12;;;;;;;4.03;1.80;;;23.20;34.00;;;;;;6157552;28;80734;-67
2021/10/22 08:00:13;;;;;;;5.40;1.90;;;23.00;33.50;;;;;;6157496;28;80311;-68
2021/10/22 08:03:13;;;;;;;8.70;1.95;;;23.00;34.10;;;;;;6156911;28;81639;-68
2021/10/22 08:06:15;;;;;;;2.58;1.60;;;23.10;33.70;;;;;;6158362;28;80484;-67
2021/10/22 08:09:15;;;;;;;5.47;2.00;;;23.00;33.30;;;;;;6157488;28;80418;-67
2021/10/22 08:12:17;;;;;;;5.63;1.75;;;23.20;33.40;;;;;;6155113;28;80880;-66
2021/10/22 08:15:17;;;;;;;2.47;1.48;;;23.40;33.50;;;;;;6135878;28;81884;-66
2021/10/22 08:18:18;;;;;;;5.28;1.90;;;23.50;33.50;;;;;;6153187;28;80356;-66
2021/10/22 08:24:19;;;;;;;3.92;1.98;;;23.60;32.80;;;;;;6157010;28;80765;-67
2021/10/22 08:27:19;;;;;;;6.45;1.98;;;23.60;32.90;;;;;;6155941;28;80432;-68
2021/10/22 08:30:22;;;;;;;6.00;1.92;;;23.80;32.70;;;;;;6154763;28;80519;-68
2021/10/22 08:33:22;;;;;;;7.50;2.20;;;24.00;32.90;;;;;;6155305;28;80583;-68
2021/10/22 08:36:23;;;;;;;4.90;2.00;;;24.10;32.50;;;;;;6156536;28;80905;-68
2021/10/22 08:39:24;;;;;;;5.53;2.00;;;24.20;32.60;;;;;;6156433;28;81085;-67
2021/10/22 08:42:24;;;;;;;6.60;2.25;;;24.30;32.70;;;;;;6158164;28;80463;-66
2021/10/22 08:45:25;;;;;;;4.43;1.80;;;24.40;33.00;;;;;;6157686;28;81776;-67
2021/10/22 08:48:25;;;;;;;4.95;2.00;;;24.50;32.40;;;;;;6161926;28;80424;-67
2021/10/22 08:51:26;;;;;;;8.05;2.10;;;24.50;32.00;;;;;;6160185;28;81311;-66
2021/10/22 08:54:26;;;;;;;4.18;1.58;;;24.60;31.90;;;;;;6163307;28;80930;-67
2021/10/22 08:57:27;;;;;;;5.47;2.17;;;24.70;31.80;;;;;;6144506;28;81154;-66
2021/10/22 09:00:28;;;;;;;7.70;2.15;;;24.80;31.70;;;;;;6160439;28;83504;-66
2021/10/22 09:03:28;;;;;;;5.53;1.60;;;24.80;31.50;;;;;;6167571;28;80417;-65
2021/10/22 09:06:29;;;;;;;4.65;1.80;;;24.90;31.70;;;;;;6159909;28;80384;-66
2021/10/22 09:09:29;;;;;;;4.50;2.00;;;24.90;31.30;;;;;;6161161;28;80690;-67
2021/10/22 09:12:30;;;;;;;4.93;2.03;;;25.00;31.40;;;;;;6164046;28;80884;-67
2021/10/22 09:15:32;;;;;;;4.55;2.20;;;25.00;31.10;;;;;;6164846;28;80389;-68
2021/10/22 09:18:32;;;;;;;7.10;2.00;;;25.00;30.40;;;;;;6162512;28;80405;-68
2021/10/22 09:21:33;;;;;;;5.82;1.80;;;25.00;30.70;;;;;;6163520;28;80761;-67
2021/10/22 09:24:34;;;;;;;3.92;2.00;;;25.00;30.30;;;;;;6160832;28;80455;-67
2021/10/22 09:27:34;;;;;;;4.22;2.08;;;25.10;30.20;;;;;;6173965;28;81113;-68
2021/10/22 09:30:37;;;;;;;4.20;1.85;;;25.10;29.40;;;;;;6159591;28;82813;-69
2021/10/22 09:33:38;;;;;;;4.15;1.80;;;25.10;30.00;;;;;;6143982;28;81397;-69
2021/10/22 09:36:38;;;;;;;4.10;1.80;;;25.10;30.00;;;;;;6161399;28;80455;-68
2021/10/22 09:39:39;;;;;;;3.25;1.52;;;25.30;30.20;;;;;;6160250;28;81389;-69
2021/10/22 09:42:39;;;;;;;5.38;1.80;;;25.30;30.10;;;;;;6161765;28;80393;-67
2021/10/22 09:45:40;;;;;;;5.43;1.83;;;25.40;30.20;;;;;;6142925;28;80255;-68
2021/10/22 09:48:45;;;;;;;3.72;1.88;;;25.40;29.90;;;;;;6162009;28;80612;-68
2021/10/22 09:51:46;;;;;;;4.70;2.03;;;25.50;30.00;;;;;;6159348;28;80111;-68
2021/10/22 09:54:46;;;;;;;5.93;2.33;;;25.50;29.80;;;;;;6161490;28;81656;-67
2021/10/22 09:57:47;;;;;;;5.00;2.13;;;25.50;29.80;;;;;;6159277;28;80898;-68
2021/10/22 10:00:48;;;;;;;5.10;1.80;;;25.60;30.00;;;;;;6158677;28;82295;-68
2021/10/22 10:03:48;;;;;;;7.10;2.33;;;25.70;29.90;;;;;;6161696;28;81235;-65
2021/10/22 10:06:49;;;;;;;4.50;1.80;;;25.70;29.60;;;;;;6166120;28;80418;-65
2021/10/22 10:09:50;;;;;;;7.40;2.05;;;25.80;29.70;;;;;;6160020;28;80505;-65
2021/10/22 10:12:51;;;;;;;3.95;1.95;;;25.80;29.90;;;;;;6158993;28;80443;-64
2021/10/22 10:15:51;;;;;;;5.22;2.42;;;25.80;29.50;;;;;;6162226;28;81331;-67
2021/10/22 10:18:52;;;;;;;3.67;1.60;;;25.90;29.30;;;;;;6161397;28;81025;-65
2021/10/22 10:21:52;;;;;;;5.82;1.92;;;25.90;29.40;;;;;;6141846;28;81431;-65
2021/10/22 10:24:53;;;;;;;2.60;1.50;;;25.90;29.30;;;;;;6159923;28;80679;-66
2021/10/22 10:27:53;;;;;;;3.63;1.80;;;26.00;29.20;;;;;;6160518;28;80532;-66
2021/10/22 10:30:54;;;;;;;5.78;2.33;;;26.00;29.20;;;;;;6160614;28;81441;-66
2021/10/22 10:33:55;;;;;;;3.28;2.15;;;26.00;29.10;;;;;;6160142;28;81940;-66
2021/10/22 10:36:55;;;;;;;7.32;2.15;;;26.00;29.20;;;;;;6144100;28;80458;-67
2021/10/22 10:39:56;;;;;;;2.95;1.73;;;26.00;28.90;;;;;;6158864;28;81563;-65
2021/10/22 10:42:57;;;;;;;1.92;1.67;;;26.00;29.60;;;;;;6162687;28;80375;-66
2021/10/22 10:45:57;;;;;;;2.38;1.58;;;26.10;29.40;;;;;;6161441;28;82574;-65
2021/10/22 10:48:58;;;;;;;4.00;1.73;;;26.10;29.50;;;;;;6160967;28;80498;-66
2021/10/22 10:51:58;;;;;;;5.70;2.28;;;26.10;29.40;;;;;;6158642;28;80966;-67
2021/10/22 10:54:58;;;;;;;6.97;2.20;;;26.20;29.60;;;;;;6154902;28;81132;-65
2021/10/22 10:57:59;;;;;;;3.58;2.22;;;26.20;29.70;;;;;;6160465;28;81759;-66
2021/10/22 11:01:06;;;;;;;4.82;2.28;;;26.20;29.80;;;;;;6158434;28;81382;-65
2021/10/22 11:04:07;;;;;;;8.98;1.88;;;26.30;29.90;;;;;;6159570;28;87370;-67
2021/10/22 11:07:07;;;;;;;4.15;1.80;;;26.30;29.80;;;;;;6144126;28;82426;-66
2021/10/22 11:10:08;;;;;;;3.70;1.98;;;26.30;29.70;;;;;;6162516;28;82965;-65
2021/10/22 11:13:09;;;;;;;5.95;1.73;;;26.30;29.80;;;;;;6157835;28;80356;-65
2021/10/22 11:16:09;;;;;;;2.45;1.50;;;26.40;29.70;;;;;;6158663;28;82058;-65
2021/10/22 11:19:10;;;;;;;3.22;1.80;;;26.30;29.70;;;;;;6156103;28;80300;-65
2021/10/22 11:22:10;;;;;;;5.10;1.77;;;26.30;30.00;;;;;;6159813;28;81585;-66
2021/10/22 11:25:11;;;;;;;4.10;1.70;;;26.40;29.70;;;;;;6157985;28;80945;-66
2021/10/22 11:28:13;;;;;;;4.47;1.60;;;26.40;29.90;;;;;;6159380;28;80609;-66
2021/10/22 11:31:14;;;;;;;4.38;2.05;;;26.40;29.30;;;;;;6154914;28;80587;-66
2021/10/22 11:34:15;;;;;;;3.20;1.90;;;26.40;29.50;;;;;;6156760;28;80980;-67
2021/10/22 11:37:16;;;;;;;3.00;1.95;;;26.40;29.20;;;;;;6140049;28;80596;-66
2021/10/22 11:40:19;;;;;;;2.97;1.48;;;26.50;28.90;;;;;;6156482;28;80858;-67
2021/10/22 11:43:20;;;;;;;2.10;1.55;;;26.40;29.00;;;;;;6157572;28;80929;-66
2021/10/22 11:46:21;;;;;;;6.50;1.92;;;26.40;29.00;;;;;;6154547;28;80363;-66
2021/10/22 11:49:21;;;;;;;2.30;1.60;;;26.50;29.10;;;;;;6154799;28;80892;-66
2021/10/22 11:52:22;;;;;;;7.03;1.85;;;26.50;29.10;;;;;;6156785;28;84775;-68
2021/10/22 11:55:22;;;;;;;1.85;1.23;;;26.40;28.80;;;;;;6143618;28;81855;-67
2021/10/22 11:58:23;;;;;;;3.88;1.90;;;26.50;29.00;;;;;;6159835;28;80805;-67
2021/10/22 12:01:24;;;;;;;6.50;1.67;;;26.60;29.30;;;;;;6157223;28;80760;-65
2021/10/22 12:04:24;;;;;;;6.65;2.22;;;26.50;29.10;;;;;;6157557;28;81201;-67
2021/10/22 12:07:25;;;;;;;8.75;2.60;;;26.50;29.30;;;;;;6160507;28;80451;-67
2021/10/22 12:10:25;;;;;;;6.85;2.50;;;26.50;29.40;;;;;;6158971;28;80941;-67
2021/10/22 12:13:26;;;;;;;7.97;3.08;;;26.60;29.50;;;;;;6163224;28;82441;-67
2021/10/22 12:16:27;;;;;;;4.35;2.22;;;26.50;29.30;;;;;;6159856;28;81794;-66
2021/10/22 12:19:28;;;;;;;6.32;2.28;;;26.50;29.30;;;;;;6123060;28;83290;-68
2021/10/22 12:22:28;;;;;;;7.72;2.05;;;26.60;29.40;;;;;;6159539;28;80998;-67
2021/10/22 12:25:29;;;;;;;4.90;1.98;;;26.60;29.50;;;;;;6161770;28;80466;-67
2021/10/22 12:28:29;;;;;;;4.63;2.50;;;26.60;29.60;;;;;;6168282;28;80701;-67
2021/10/22 12:31:30;;;;;;;4.55;2.20;;;26.60;29.60;;;;;;6161742;28;82715;-66
2021/10/22 12:34:31;;;;;;;4.53;1.90;;;26.60;29.30;;;;;;6159578;28;81860;-66
2021/10/22 12:37:32;;;;;;;5.55;2.10;;;26.50;29.50;;;;;;6158829;28;80919;-66
2021/10/22 12:40:32;;;;;;;4.10;1.77;;;26.50;29.20;;;;;;6163681;28;80482;-66
2021/10/22 12:43:35;;;;;;;4.45;1.65;;;26.50;29.00;;;;;;6156971;28;81122;-66
2021/10/22 12:46:36;;;;;;;3.65;1.77;;;26.50;29.40;;;;;;6147081;28;81155;-67
2021/10/22 12:49:36;;;;;;;8.60;2.28;;;26.40;28.90;;;;;;6168811;28;80463;-66
2021/10/22 12:52:37;;;;;;;4.50;1.90;;;26.40;29.10;;;;;;6159849;28;80316;-68
2021/10/22 12:55:38;;;;;;;5.80;1.88;;;26.40;28.70;;;;;;6150683;28;80740;-67
2021/10/22 12:58:39;;;;;;;2.63;1.67;;;26.40;29.00;;;;;;6160423;28;81206;-65
2021/10/22 13:01:40;;;;;;;2.97;1.77;;;26.40;29.00;;;;;;6157255;28;81136;-68
2021/10/22 13:04:40;;;;;;;4.18;1.73;;;26.40;29.10;;;;;;6154342;28;80848;-69
2021/10/22 13:07:56;;;;;;;3.83;1.63;;;26.40;29.20;;;;;;6160914;28;82560;-70
2021/10/22 13:11:19;;;;;;;3.10;1.80;;;26.40;29.10;;;;;;6155927;28;80808;-70
2021/10/22 13:14:41;;;;;;;3.08;1.70;;;26.40;29.10;;;;;;6158162;28;80443;-69
2021/10/22 13:21:01;;;;;;;2.38;1.83;;;26.40;29.00;;;;;;6140539;28;83894;-68
2021/10/22 13:24:02;;;;;;;3.50;1.92;;;26.40;28.80;;;;;;6161150;28;80837;-66
2021/10/22 13:27:02;;;;;;;3.03;1.98;;;26.40;28.80;;;;;;6153866;28;81324;-66
2021/10/22 13:30:11;;;;;;;3.95;1.58;;;26.40;28.70;;;;;;6157125;28;81506;-68
2021/10/22 13:33:15;;;;;;;2.30;1.63;;;26.40;28.70;;;;;;6139765;28;81516;-69
2021/10/22 13:36:16;;;;;;;3.35;1.63;;;26.30;28.70;;;;;;6157775;28;81611;-67
2021/10/22 13:39:16;;;;;;;5.50;1.60;;;26.20;28.60;;;;;;6143427;28;83495;-68
2021/10/22 13:42:17;;;;;;;2.35;1.55;;;26.20;28.60;;;;;;6155842;28;81019;-68
2021/10/22 13:45:17;;;;;;;4.88;1.80;;;26.30;28.60;;;;;;6156139;28;81429;-67
2021/10/22 13:48:18;;;;;;;3.55;1.75;;;26.20;28.50;;;;;;6155959;28;82005;-68
2021/10/22 13:51:18;;;;;;;4.13;1.90;;;26.20;28.50;;;;;;6157319;28;80395;-66
2021/10/22 13:54:19;;;;;;;3.85;1.60;;;26.20;28.70;;;;;;6128555;28;81582;-67
2021/10/22 13:57:20;;;;;;;4.25;2.35;;;26.20;28.50;;;;;;6157909;28;80553;-68
2021/10/22 14:00:20;;;;;;;2.42;1.90;;;26.20;28.60;;;;;;6161134;28;82930;-67
2021/10/22 14:03:21;;;;;;;6.28;2.70;;;26.20;28.50;;;;;;6141007;28;80695;-67
2021/10/22 14:06:22;;;;;;;3.55;1.90;;;26.20;28.70;;;;;;6150641;28;81216;-68
2021/10/22 14:09:22;;;;;;;5.65;1.92;;;26.20;28.50;;;;;;6155896;28;80529;-69
2021/10/22 14:31:37;;;;;;;5.32;1.73;;;26.90;28.20;;;;;;6157085;28;80695;-66
2021/10/22 14:34:38;;;;;;;3.50;1.83;;;27.30;27.90;;;;;;6158692;28;80722;-66
2021/10/22 14:37:38;;;;;;;3.92;1.80;;;27.40;27.40;;;;;;6162706;28;80396;-65
2021/10/22 14:40:39;;;;;;;3.53;2.20;;;27.40;27.30;;;;;;6164346;28;80644;-66
2021/10/22 14:43:43;;;;;;;7.25;2.00;;;27.60;27.10;;;;;;6148961;28;80533;-64
2021/10/22 14:46:52;;;;;;;3.60;2.13;;;27.50;26.70;;;;;;6159500;28;80263;-66
2021/10/22 14:50:28;;;;;;;6.35;1.95;;;27.30;27.00;;;;;;6160667;28;80617;-66
2021/10/22 14:56:23;;;;;;;3.42;1.70;;;26.70;27.40;;;;;;6165476;28;80906;-66
2021/10/22 14:59:24;;;;;;;9.43;1.85;;;26.50;27.60;;;;;;6164279;28;80562;-64
2021/10/22 15:02:24;;;;;;;9.02;2.55;;;26.40;27.40;;;;;;6158252;28;80527;-66
2021/10/22 15:05:25;;;;;;;4.97;1.88;;;26.40;27.60;;;;;;6157215;28;81567;-67
2021/10/22 15:08:25;;;;;;;5.72;2.03;;;26.30;27.50;;;;;;6161470;28;80448;-66
2021/10/22 15:11:26;;;;;;;3.88;1.90;;;26.10;27.70;;;;;;6163410;28;81238;-66
2021/10/22 15:14:26;;;;;;;5.30;1.92;;;25.90;27.80;;;;;;6157129;28;83300;-66
2021/10/22 15:17:27;;;;;;;4.93;2.17;;;25.80;28.50;;;;;;6152958;28;81022;-67
2021/10/22 15:20:27;;;;;;;4.03;2.00;;;25.80;28.60;;;;;;6152941;28;80522;-67
2021/10/22 15:23:28;;;;;;;3.25;1.65;;;25.70;28.90;;;;;;6156539;28;81806;-66
2021/10/22 15:26:29;;;;;;;6.30;1.90;;;25.70;28.90;;;;;;6156451;28;81109;-67
2021/10/22 15:29:29;;;;;;;4.18;1.98;;;25.60;28.90;;;;;;6157318;28;80752;-67
2021/10/22 15:32:30;;;;;;;4.55;1.88;;;25.50;28.80;;;;;;6153169;28;81498;-65
2021/10/22 15:35:30;;;;;;;3.45;2.03;;;25.40;28.80;;;;;;6155379;28;80402;-68
2021/10/22 15:38:31;;;;;;;3.83;2.20;;;25.40;28.90;;;;;;6117094;28;81656;-67
2021/10/22 15:41:31;;;;;;;2.63;1.75;;;25.30;29.30;;;;;;6148482;28;81469;-66
2021/10/22 15:44:32;;;;;;;3.55;2.10;;;25.30;29.50;;;;;;6152376;28;81957;-66
2021/10/22 15:47:32;;;;;;;2.53;1.88;;;25.20;29.50;;;;;;6152135;28;80635;-66
2021/10/22 15:50:34;;;;;;;3.13;1.90;;;25.20;30.00;;;;;;6155837;28;81485;-66
2021/10/22 15:53:35;;;;;;;5.18;2.50;;;25.20;30.00;;;;;;6153961;28;81131;-68
2021/10/22 15:56:36;;;;;;;4.35;2.30;;;25.20;30.00;;;;;;6156133;28;80978;-67
2021/10/22 15:59:36;;;;;;;3.78;2.25;;;25.20;30.00;;;;;;6155488;28;80301;-65
2021/10/22 16:02:37;;;;;;;6.93;2.05;;;25.20;30.10;;;;;;6160647;28;80913;-65
2021/10/22 16:05:39;;;;;;;7.15;2.42;;;25.20;30.50;;;;;;6155881;28;80921;-61
2021/10/22 16:08:44;;;;;;;4.78;2.35;;;25.10;30.60;;;;;;6155935;28;81141;-66
2021/10/22 16:11:50;;;;;;;7.88;2.58;;;25.10;30.30;;;;;;6153250;28;80957;-65
2021/10/22 16:17:59;;;;;;;3.63;2.10;;;25.10;30.20;;;;;;6163308;28;80290;-67
2021/10/22 16:20:59;;;;;;;5.72;2.55;;;25.00;30.90;;;;;;6157510;28;81008;-67